Time;durP1;ratioP1;P1;durP2;ratioP2;P2;SDS_P1;SDS_P2;PMS_P1;PMS_P2;Temp;Humidity;BMP_temperature;BMP_pressure;BME280_temperature;BME280_humidity;BME280_pressure;Samples;Min_cycle;Max_cycle;Signal;HPM_P1;HPM_P2
2021/09/07 00:02:04;;;;;;;9.98;3.28;;;;;;;16.80;70.42;100820.28;5070821;28;20070;-73
2021/09/07 00:04:29;;;;;;;8.93;3.42;;;;;;;16.87;69.73;100823.91;5070756;28;20449;-73
2021/09/07 00:06:58;;;;;;;10.50;3.55;;;;;;;16.96;69.67;100820.19;5063441;28;20334;-73
2021/09/07 00:09:24;;;;;;;8.27;3.83;;;;;;;16.88;69.65;100826.41;5051621;28;20251;-73
2021/09/07 00:11:50;;;;;;;7.65;2.95;;;;;;;16.64;69.96;100793.56;5067681;28;20055;-73
2021/09/07 00:14:15;;;;;;;7.65;3.38;;;;;;;16.84;70.14;100811.72;5066695;28;20298;-73
2021/09/07 00:16:41;;;;;;;8.43;3.10;;;;;;;16.89;69.63;100824.56;5070168;28;20318;-73
2021/09/07 00:19:06;;;;;;;10.43;3.90;;;;;;;16.89;69.57;100828.06;5056664;28;20028;-73
2021/09/07 00:21:32;;;;;;;12.30;3.20;;;;;;;16.96;68.90;100820.19;5068598;28;20055;-73
2021/09/07 00:23:57;;;;;;;12.10;3.83;;;;;;;16.80;68.86;100807.75;5058458;28;20021;-73
2021/09/07 00:26:22;;;;;;;10.43;3.35;;;;;;;17.04;68.28;100828.16;5070322;28;20237;-73
2021/09/07 00:28:48;;;;;;;7.32;3.50;;;;;;;17.10;67.96;100824.75;5067384;28;20033;-73
2021/09/07 00:31:13;;;;;;;13.40;3.67;;;;;;;16.96;68.77;100824.69;5051156;28;20043;-73
2021/09/07 00:33:39;;;;;;;8.88;3.42;;;;;;;16.96;68.50;100822.03;5055525;28;20210;-73
2021/09/07 00:36:04;;;;;;;10.25;3.92;;;;;;;16.89;68.91;100825.41;5066336;28;20342;-73
2021/09/07 00:38:30;;;;;;;7.43;3.53;;;;;;;16.74;69.41;100827.16;5067355;28;20314;-73
2021/09/07 00:40:55;;;;;;;8.00;3.42;;;;;;;16.67;69.91;100826.19;5068824;28;20358;-73
2021/09/07 00:43:20;;;;;;;6.82;3.10;;;;;;;16.84;68.93;100809.06;5052275;28;20021;-73
2021/09/07 00:45:46;;;;;;;12.95;3.55;;;;;;;16.78;68.88;100825.81;5061489;28;20341;-73
2021/09/07 00:48:11;;;;;;;7.63;3.75;;;;;;;16.83;69.18;100827.94;5061458;28;20323;-73
2021/09/07 00:50:37;;;;;;;15.60;3.10;;;;;;;16.82;69.27;100815.59;5066772;28;20025;-73
2021/09/07 00:53:03;;;;;;;6.45;2.80;;;;;;;16.88;69.54;100826.41;5069928;28;20131;-73
2021/09/07 00:55:29;;;;;;;5.95;2.92;;;;;;;16.91;69.27;100820.72;5071141;28;20037;-73
2021/09/07 00:57:55;;;;;;;7.70;3.80;;;;;;;16.90;69.74;100820.88;5070560;28;20036;-73
2021/09/07 01:00:21;;;;;;;6.38;2.97;;;;;;;17.02;68.72;100811.44;5074697;28;20040;-72
2021/09/07 01:02:46;;;;;;;5.70;3.30;;;;;;;17.12;68.80;100821.91;5079419;28;20063;-73
2021/09/07 01:05:12;;;;;;;10.48;3.17;;;;;;;17.16;68.65;100818.69;5074602;28;20048;-73
2021/09/07 01:07:38;;;;;;;10.88;3.47;;;;;;;17.19;68.58;100818.34;5054638;28;20021;-73
2021/09/07 01:10:06;;;;;;;8.18;4.28;;;;;;;17.16;68.42;100828.56;5069379;28;20028;-73
2021/09/07 01:12:33;;;;;;;8.88;3.22;;;;;;;17.05;69.08;100813.75;5073633;28;20082;-73
2021/09/07 01:14:58;;;;;;;10.48;3.33;;;;;;;17.20;68.42;100811.97;5054700;28;20097;-73
2021/09/07 01:17:24;;;;;;;10.15;3.38;;;;;;;17.15;68.95;100816.19;5074066;28;20203;-73
2021/09/07 01:19:50;;;;;;;10.30;3.30;;;;;;;17.30;68.40;100825.13;5073151;28;20032;-73
2021/09/07 01:22:17;;;;;;;6.15;3.15;;;;;;;17.28;68.18;100827.13;5070117;28;20028;-73
2021/09/07 01:24:43;;;;;;;8.75;3.38;;;;;;;17.39;68.15;100821.34;5064520;28;20021;-73
2021/09/07 01:27:09;;;;;;;5.85;3.10;;;;;;;17.34;67.95;100822.91;5062531;28;20075;-73
2021/09/07 01:29:37;;;;;;;9.10;3.50;;;;;;;17.39;68.30;100818.69;5071559;28;20860;-73
2021/09/07 01:32:04;;;;;;;8.93;3.45;;;;;;;17.39;67.81;100816.00;5060124;28;20099;-73
2021/09/07 01:34:30;;;;;;;12.65;3.67;;;;;;;17.26;67.34;100822.97;5076338;28;20025;-73
2021/09/07 01:36:56;;;;;;;7.63;3.22;;;;;;;17.08;67.59;100788.50;5065621;28;20020;-73
2021/09/07 01:39:22;;;;;;;8.18;3.70;;;;;;;17.54;66.01;100824.91;5075178;28;20063;-73
2021/09/07 01:41:48;;;;;;;9.02;3.85;;;;;;;17.16;67.36;100805.31;5064975;28;20334;-74
2021/09/07 01:44:14;;;;;;;6.63;3.65;;;;;;;17.05;68.20;100818.28;5074386;28;20186;-73
2021/09/07 01:46:39;;;;;;;8.50;4.28;;;;;;;16.90;68.35;100803.00;5069500;28;20081;-73
2021/09/07 01:49:09;;;;;;;8.40;3.75;;;;;;;17.07;68.32;100821.59;5056441;28;20337;-73
2021/09/07 01:51:36;;;;;;;13.73;3.92;;;;;;;17.22;68.19;100823.34;5074311;28;20722;-73
2021/09/07 01:54:02;;;;;;;8.77;3.83;;;;;;;17.33;67.43;100818.56;5075854;28;20029;-73
2021/09/07 01:56:28;;;;;;;9.00;4.00;;;;;;;17.54;66.22;100811.53;5080470;28;20060;-73
2021/09/07 01:58:53;;;;;;;7.55;3.63;;;;;;;17.66;65.88;100814.63;5057465;28;20028;-73
2021/09/07 02:01:19;;;;;;;8.55;3.65;;;;;;;17.58;66.18;100814.66;5077525;28;20040;-73
2021/09/07 02:03:44;;;;;;;8.75;3.42;;;;;;;17.51;66.10;100806.53;5056048;28;20017;-73
2021/09/07 02:06:12;;;;;;;10.38;3.72;;;;;;;17.52;66.33;100815.38;5075566;28;20041;-73
2021/09/07 02:08:37;;;;;;;9.70;3.63;;;;;;;17.58;65.84;100814.66;5073411;28;20036;-73
2021/09/07 02:11:03;;;;;;;12.60;4.38;;;;;;;17.43;66.30;100816.47;5077445;28;20149;-73
2021/09/07 02:13:28;;;;;;;12.98;4.38;;;;;;;17.44;66.58;100816.28;5076547;28;20107;-73
2021/09/07 02:15:53;;;;;;;5.95;3.40;;;;;;;17.38;66.75;100827.72;5065296;28;20032;-73
2021/09/07 02:18:19;;;;;;;12.05;4.20;;;;;;;17.38;67.01;100824.22;5083146;28;20087;-73
2021/09/07 02:20:44;;;;;;;12.00;3.75;;;;;;;17.38;66.89;100821.53;5081068;28;20335;-74
2021/09/07 02:23:10;;;;;;;12.30;5.13;;;;;;;17.44;66.17;100802.06;5071322;28;20353;-73
2021/09/07 02:25:35;;;;;;;11.20;4.10;;;;;;;17.48;65.71;100816.75;5071763;28;20077;-73
2021/09/07 02:28:02;;;;;;;12.38;4.18;;;;;;;17.44;65.52;100818.13;5063660;28;20021;-73
2021/09/07 02:30:28;;;;;;;8.68;3.97;;;;;;;17.40;65.65;100820.34;5061161;28;20028;-73
2021/09/07 02:32:56;;;;;;;7.35;3.88;;;;;;;17.40;65.33;100825.69;5069025;28;20051;-73
2021/09/07 02:35:24;;;;;;;11.52;3.92;;;;;;;17.33;64.83;100822.06;5064313;28;20079;-73
2021/09/07 02:37:49;;;;;;;10.48;4.70;;;;;;;17.26;65.31;100825.66;5072464;28;20040;-73
2021/09/07 02:40:15;;;;;;;17.00;5.82;;;;;;;17.15;65.84;100811.69;5080799;28;20076;-73
2021/09/07 02:42:40;;;;;;;33.03;10.70;;;;;;;17.18;66.25;100826.53;5082421;28;20036;-73
2021/09/07 02:45:06;;;;;;;21.08;8.27;;;;;;;17.17;65.59;100824.88;5062745;28;20020;-73
2021/09/07 02:47:32;;;;;;;17.20;7.68;;;;;;;17.18;64.47;100823.88;5072773;28;20262;-73
2021/09/07 02:49:57;;;;;;;23.25;7.13;;;;;;;17.09;64.26;100824.94;5064080;28;20066;-73
2021/09/07 02:52:23;;;;;;;22.52;7.95;;;;;;;17.09;65.33;100833.81;5071803;28;20077;-73
2021/09/07 02:54:48;;;;;;;28.90;10.40;;;;;;;17.07;65.24;100825.13;5052809;28;20187;-73
2021/09/07 02:57:13;;;;;;;23.70;10.88;;;;;;;16.98;65.34;100815.47;5078557;28;20322;-73
2021/09/07 02:59:39;;;;;;;26.77;10.57;;;;;;;16.95;65.27;100818.50;5064093;28;20050;-73
2021/09/07 03:02:04;;;;;;;32.70;12.30;;;;;;;17.01;65.78;100825.00;5053373;28;20269;-73
2021/09/07 03:04:30;;;;;;;24.75;9.90;;;;;;;17.04;65.27;100824.66;5082720;28;20077;-73
2021/09/07 03:06:55;;;;;;;30.90;9.23;;;;;;;16.97;64.10;100823.69;5080691;28;20025;-73
2021/09/07 03:09:21;;;;;;;31.05;12.50;;;;;;;16.92;65.52;100822.38;5071207;28;20021;-73
2021/09/07 03:11:46;;;;;;;34.10;13.73;;;;;;;16.81;65.40;100812.09;5069409;28;20067;-73
2021/09/07 03:14:12;;;;;;;42.13;16.10;;;;;;;16.83;65.81;100831.47;5068631;28;20048;-73
2021/09/07 03:16:37;;;;;;;46.78;18.70;;;;;;;16.84;66.36;100833.13;5064108;28;20032;-74
2021/09/07 03:19:04;;;;;;;44.05;17.13;;;;;;;16.75;66.66;100820.81;5064418;28;20028;-73
2021/09/07 03:21:30;;;;;;;38.25;14.10;;;;;;;16.72;65.61;100818.50;5067988;28;20048;-73
2021/09/07 03:23:55;;;;;;;23.85;10.20;;;;;;;16.70;66.96;100825.03;5061625;28;20152;-73
2021/09/07 03:26:21;;;;;;;21.63;8.10;;;;;;;16.47;69.52;100824.91;5064888;28;20268;-73
2021/09/07 03:28:46;;;;;;;33.90;12.18;;;;;;;16.32;70.40;100822.13;5068105;28;20028;-73
2021/09/07 03:31:12;;;;;;;111.65;37.72;;;;;;;16.46;70.29;100829.41;5070315;28;20028;-73
2021/09/07 03:33:37;;;;;;;121.47;41.75;;;;;;;16.69;69.43;100821.50;5071373;28;20032;-73
2021/09/07 03:36:03;;;;;;;99.20;33.90;;;;;;;16.66;69.89;100824.53;5067136;28;20088;-73
2021/09/07 03:38:28;;;;;;;97.43;31.65;;;;;;;16.79;68.87;100819.44;5060834;28;20062;-73
2021/09/07 03:40:54;;;;;;;73.55;26.58;;;;;;;16.94;68.55;100818.69;5061127;28;20041;-73
2021/09/07 03:43:19;;;;;;;61.75;22.15;;;;;;;16.86;68.24;100811.53;5071505;28;20106;-73
2021/09/07 03:45:45;;;;;;;60.30;20.85;;;;;;;16.94;67.93;100822.19;5069059;28;20037;-73
2021/09/07 03:48:10;;;;;;;52.45;18.73;;;;;;;16.89;68.16;100819.22;5068578;28;20044;-73
2021/09/07 03:50:36;;;;;;;46.60;15.15;;;;;;;16.94;68.07;100824.88;5073639;28;20021;-73
2021/09/07 03:53:04;;;;;;;38.53;13.25;;;;;;;17.05;68.13;100839.69;5063388;28;20093;-73
2021/09/07 03:55:29;;;;;;;31.02;10.60;;;;;;;16.91;68.54;100844.78;5071080;28;20029;-73
2021/09/07 03:57:55;;;;;;;32.88;11.10;;;;;;;16.99;68.10;100845.75;5076558;28;20050;-73
2021/09/07 04:00:20;;;;;;;32.67;10.30;;;;;;;16.85;68.53;100845.50;5065906;28;20016;-73
2021/09/07 04:02:46;;;;;;;25.02;8.95;;;;;;;16.83;68.92;100850.19;5053823;28;20026;-73
2021/09/07 04:08:33;;;;;;;27.25;8.32;;;;;;;16.95;68.23;100852.47;5060531;28;20100;-74
2021/09/07 04:10:59;;;;;;;28.63;10.27;;;;;;;17.14;67.46;100849.31;5066523;28;20412;-73
2021/09/07 04:13:24;;;;;;;38.35;14.00;;;;;;;17.15;67.24;100846.47;5070456;28;20021;-73
2021/09/07 04:15:49;;;;;;;48.63;17.10;;;;;;;17.16;67.37;100849.97;5071665;28;20203;-73
2021/09/07 04:18:16;;;;;;;54.70;18.05;;;;;;;17.16;67.15;100848.13;5060951;28;20290;-73
2021/09/07 04:20:41;;;;;;;52.65;19.33;;;;;;;17.05;67.35;100848.53;5060468;28;20474;-73
2021/09/07 04:23:07;;;;;;;48.08;17.63;;;;;;;17.12;66.83;100849.50;5062722;28;20073;-73
2021/09/07 04:25:32;;;;;;;50.88;19.80;;;;;;;17.19;66.93;100852.31;5072087;28;20053;-73
2021/09/07 04:27:58;;;;;;;49.13;17.80;;;;;;;16.90;67.90;100853.81;5065082;28;20036;-73
2021/09/07 04:30:23;;;;;;;57.17;19.70;;;;;;;17.04;67.32;100841.53;5073998;28;20344;-74
2021/09/07 04:32:49;;;;;;;51.15;18.85;;;;;;;17.27;66.93;100859.44;5062703;28;20020;-73
2021/09/07 04:35:15;;;;;;;52.47;16.20;;;;;;;17.42;66.54;100857.66;5056590;28;20017;-73
2021/09/07 04:37:41;;;;;;;39.97;14.13;;;;;;;17.49;66.32;100847.88;5078097;28;20198;-73
2021/09/07 04:40:07;;;;;;;35.38;12.13;;;;;;;17.49;65.91;100851.41;5075578;28;20035;-73
2021/09/07 04:42:33;;;;;;;40.20;12.23;;;;;;;17.43;66.41;100870.03;5072929;28;20228;-73
2021/09/07 04:44:58;;;;;;;38.30;10.85;;;;;;;17.47;66.83;100868.66;5072170;28;20040;-73
2021/09/07 04:47:23;;;;;;;35.10;13.23;;;;;;;17.50;66.20;100871.81;5069620;28;20017;-73
2021/09/07 04:49:49;;;;;;;46.15;15.77;;;;;;;17.73;66.06;100871.00;5072575;28;20253;-73
2021/09/07 04:52:14;;;;;;;145.30;49.72;;;;;;;17.36;66.76;100861.88;5072763;28;20032;-73
2021/09/07 04:54:40;;;;;;;103.85;38.95;;;;;;;17.66;65.84;100861.97;5065806;28;20071;-73
2021/09/07 04:57:05;;;;;;;52.85;19.58;;;;;;;17.39;66.39;100871.41;5074756;28;20252;-73
2021/09/07 04:59:31;;;;;;;16.67;8.15;;;;;;;17.67;65.34;100879.75;5077031;28;20025;-73
2021/09/07 05:01:56;;;;;;;16.15;6.95;;;;;;;17.62;65.45;100871.38;5071615;28;20059;-73
2021/09/07 05:04:22;;;;;;;18.35;5.35;;;;;;;17.36;65.47;100863.72;5066226;28;20032;-73
2021/09/07 05:06:50;;;;;;;15.40;5.22;;;;;;;17.36;65.72;100877.94;5056424;28;20045;-73
2021/09/07 05:09:15;;;;;;;20.67;5.97;;;;;;;17.53;65.32;100866.09;5076431;28;20047;-73
2021/09/07 05:11:41;;;;;;;18.13;5.47;;;;;;;17.73;64.81;100877.19;5060778;28;20094;-73
2021/09/07 05:14:06;;;;;;;11.32;5.20;;;;;;;17.61;65.32;100869.72;5060076;28;20249;-73
2021/09/07 05:16:32;;;;;;;11.30;4.50;;;;;;;17.85;64.14;100878.44;5066882;28;20162;-73
2021/09/07 05:18:57;;;;;;;16.33;4.72;;;;;;;17.92;64.26;100869.66;5062033;28;20024;-73
2021/09/07 05:21:23;;;;;;;12.57;4.78;;;;;;;18.15;63.13;100889.19;5062709;28;20059;-73
2021/09/07 05:23:51;;;;;;;15.73;4.95;;;;;;;18.29;62.48;100891.03;5065540;28;20090;-73
2021/09/07 05:26:16;;;;;;;17.60;6.03;;;;;;;18.56;61.69;100894.09;5073167;28;20358;-73
2021/09/07 05:28:42;;;;;;;18.15;5.63;;;;;;;18.81;60.72;100888.28;5071678;28;20024;-73
2021/09/07 05:31:07;;;;;;;13.07;4.60;;;;;;;18.96;59.71;100880.22;5069701;28;20036;-74
2021/09/07 05:33:32;;;;;;;16.10;4.00;;;;;;;19.33;58.76;100891.75;5062589;28;20016;-74
2021/09/07 05:35:58;;;;;;;43.60;5.80;;;;;;;19.72;56.98;100894.84;5080842;28;20043;-74
2021/09/07 05:38:23;;;;;;;9.85;4.30;;;;;;;19.63;57.00;100887.94;5071371;28;20044;-73
2021/09/07 05:40:50;;;;;;;9.90;3.90;;;;;;;19.49;57.30;100877.25;5072831;28;20318;-73
2021/09/07 05:43:16;;;;;;;12.23;4.25;;;;;;;20.04;56.56;100881.88;5079392;28;20035;-73
2021/09/07 05:45:41;;;;;;;9.75;4.00;;;;;;;20.70;54.56;100887.69;5076414;28;20037;-73
2021/09/07 05:48:07;;;;;;;111.07;11.05;;;;;;;20.85;54.03;100879.50;5072287;28;20024;-73
2021/09/07 05:50:32;;;;;;;43.92;6.32;;;;;;;21.06;52.75;100841.66;5075351;28;20024;-73
2021/09/07 05:52:58;;;;;;;6.85;3.35;;;;;;;21.55;51.69;100880.91;5077629;28;20055;-74
2021/09/07 05:55:24;;;;;;;10.40;3.53;;;;;;;21.79;51.43;100879.47;5057730;28;20020;-74
2021/09/07 05:57:53;;;;;;;53.83;7.63;;;;;;;22.40;49.95;100881.94;5060488;28;20334;-74
2021/09/07 06:00:18;;;;;;;14.48;3.70;;;;;;;22.48;48.87;100862.81;5053273;28;20030;-74
2021/09/07 06:02:44;;;;;;;13.80;3.70;;;;;;;22.86;47.84;100868.28;5073008;28;20043;-74
2021/09/07 06:05:10;;;;;;;12.43;3.70;;;;;;;23.02;47.69;100875.09;5066898;28;20037;-74
2021/09/07 06:07:37;;;;;;;9.18;3.80;;;;;;;22.59;48.83;100870.25;5071304;28;20040;-74
2021/09/07 06:10:03;;;;;;;6.10;3.70;;;;;;;23.12;47.82;100873.56;5074953;28;20040;-74
2021/09/07 06:12:28;;;;;;;8.68;3.38;;;;;;;23.28;47.18;100874.09;5075699;28;20044;-74
2021/09/07 06:14:54;;;;;;;9.15;4.53;;;;;;;23.32;46.93;100875.31;5078551;28;20032;-74
2021/09/07 06:17:19;;;;;;;8.88;3.65;;;;;;;23.63;45.80;100877.22;5069113;28;20035;-73
2021/09/07 06:19:45;;;;;;;7.28;3.75;;;;;;;23.99;44.21;100862.97;5070747;28;20044;-74
2021/09/07 06:22:10;;;;;;;7.95;3.30;;;;;;;24.37;42.77;100877.19;5071361;28;20039;-74
2021/09/07 06:24:36;;;;;;;9.82;3.25;;;;;;;24.54;41.52;100876.59;5072329;28;20028;-74
2021/09/07 06:27:02;;;;;;;7.00;3.30;;;;;;;24.60;40.71;100868.38;5074929;28;20095;-74
2021/09/07 06:29:27;;;;;;;11.18;5.97;;;;;;;24.81;41.04;100883.31;5068789;28;20088;-74
2021/09/07 06:31:53;;;;;;;10.35;5.18;;;;;;;25.21;40.32;100880.97;5064496;28;20040;-73
2021/09/07 06:34:24;;;;;;;10.45;3.35;;;;;;;25.15;39.88;100871.03;5083059;28;20295;-74
2021/09/07 06:36:54;;;;;;;6.90;2.72;;;;;;;24.78;39.91;100884.59;5083085;28;20059;-74
2021/09/07 06:39:20;;;;;;;11.52;3.10;;;;;;;24.99;40.04;100882.53;5065356;28;20082;-73
2021/09/07 06:41:46;;;;;;;11.85;2.90;;;;;;;25.41;39.44;100886.09;5065248;28;20024;-74
2021/09/07 06:44:12;;;;;;;6.50;2.50;;;;;;;25.16;37.68;100877.28;5083411;28;20035;-73
2021/09/07 06:46:37;;;;;;;8.85;2.88;;;;;;;25.39;38.77;100882.78;5082469;28;20032;-74
2021/09/07 06:49:03;;;;;;;6.82;3.08;;;;;;;25.75;37.45;100868.25;5083045;28;20028;-74
2021/09/07 06:51:28;;;;;;;10.95;3.13;;;;;;;26.32;36.58;100885.66;5083145;28;20041;-74
2021/09/07 06:53:54;;;;;;;6.43;2.78;;;;;;;26.28;36.14;100870.88;5083306;28;20106;-74
2021/09/07 06:56:19;;;;;;;7.40;2.60;;;;;;;26.63;35.98;100881.69;5065322;28;20036;-74
2021/09/07 06:58:45;;;;;;;9.57;2.70;;;;;;;26.85;35.15;100876.44;5065152;28;20020;-72
2021/09/07 07:01:10;;;;;;;5.25;2.30;;;;;;;27.07;34.30;100883.97;5083050;28;20036;-71
2021/09/07 07:03:36;;;;;;;4.80;2.30;;;;;;;26.32;34.86;100877.50;5082929;28;20024;-73
2021/09/07 07:06:01;;;;;;;6.32;2.50;;;;;;;26.66;34.88;100888.53;5083085;28;20043;-73
2021/09/07 07:08:26;;;;;;;11.00;3.03;;;;;;;27.04;33.80;100885.25;5082966;28;20326;-74
2021/09/07 07:10:52;;;;;;;6.40;2.55;;;;;;;27.00;33.30;100882.19;5064744;28;20038;-73
2021/09/07 07:13:17;;;;;;;7.03;2.63;;;;;;;26.10;35.26;100881.88;5064547;28;20052;-74
2021/09/07 07:15:43;;;;;;;4.20;2.20;;;;;;;25.80;32.88;100873.81;5081625;28;20040;-73
2021/09/07 07:18:08;;;;;;;7.13;2.20;;;;;;;25.55;35.05;100871.25;5081686;28;20039;-73
2021/09/07 07:20:34;;;;;;;4.70;2.38;;;;;;;25.20;32.97;100882.03;5082118;28;20036;-74
2021/09/07 07:22:59;;;;;;;3.47;2.28;;;;;;;24.52;35.00;100880.34;5081665;28;20024;-74
2021/09/07 07:25:24;;;;;;;6.72;2.35;;;;;;;24.41;33.59;100880.28;5075099;28;20041;-74
2021/09/07 07:27:50;;;;;;;4.45;1.98;;;;;;;24.75;35.37;100876.94;5074387;28;20272;-74
2021/09/07 07:30:16;;;;;;;4.32;2.40;;;;;;;23.86;35.38;100870.13;5066748;28;20020;-74
2021/09/07 07:32:41;;;;;;;4.03;2.30;;;;;;;23.51;36.78;100879.75;5062935;28;20322;-73
2021/09/07 07:35:07;;;;;;;9.10;2.30;;;;;;;23.46;35.22;100869.59;5074924;28;20024;-73
2021/09/07 07:37:32;;;;;;;4.40;2.13;;;;;;;23.52;35.58;100882.25;5074876;28;20043;-74
2021/09/07 07:39:58;;;;;;;2.50;1.88;;;;;;;23.87;34.85;100888.03;5074118;28;20238;-73
2021/09/07 07:42:24;;;;;;;3.90;1.63;;;;;;;23.87;34.86;100898.84;5066940;28;20027;-74
2021/09/07 07:44:49;;;;;;;10.98;2.13;;;;;;;24.06;33.98;100888.91;5076007;28;20376;-73
2021/09/07 07:47:15;;;;;;;4.30;2.00;;;;;;;24.60;33.94;100884.63;5065669;28;20036;-73
2021/09/07 07:49:40;;;;;;;5.70;2.40;;;;;;;24.86;33.83;100888.06;5076135;28;20257;-74
2021/09/07 07:52:06;;;;;;;8.32;1.50;;;;;;;24.13;32.97;100880.75;5077326;28;20086;-73
2021/09/07 07:54:32;;;;;;;4.93;1.70;;;;;;;23.70;33.51;100891.50;5073134;28;20602;-73
2021/09/07 07:56:57;;;;;;;2.10;1.40;;;;;;;23.40;34.25;100886.69;5074145;28;20024;-73
2021/09/07 07:59:23;;;;;;;5.25;1.83;;;;;;;24.42;32.65;100884.63;5062466;28;20032;-74
2021/09/07 08:01:48;;;;;;;3.58;1.45;;;;;;;24.50;31.43;100887.03;5081101;28;20226;-73
2021/09/07 08:04:14;;;;;;;5.72;1.48;;;;;;;24.29;30.91;100896.44;5080895;28;20031;-73
2021/09/07 08:06:40;;;;;;;1.77;1.27;;;;;;;23.71;33.04;100891.28;5062469;28;20340;-73
2021/09/07 08:09:09;;;;;;;5.57;1.77;;;;;;;23.67;32.78;100900.06;5080937;28;20036;-74
2021/09/07 08:11:35;;;;;;;3.67;1.42;;;;;;;23.73;33.73;100861.31;5080710;28;20032;-74
2021/09/07 08:14:00;;;;;;;3.33;1.70;;;;;;;24.45;32.34;100889.59;5080773;28;20085;-73
2021/09/07 08:16:25;;;;;;;2.97;1.58;;;;;;;24.76;31.42;100884.00;5081229;28;20086;-74
2021/09/07 08:18:51;;;;;;;4.85;1.50;;;;;;;24.31;32.88;100893.50;5080539;28;20221;-73
2021/09/07 08:21:17;;;;;;;3.42;1.58;;;;;;;24.43;33.21;100887.13;5080981;28;20037;-73
2021/09/07 08:23:42;;;;;;;9.15;1.88;;;;;;;24.71;32.53;100881.16;5080834;28;20036;-73
2021/09/07 08:26:08;;;;;;;3.55;1.55;;;;;;;24.66;32.55;100891.84;5080426;28;20044;-73
2021/09/07 08:28:33;;;;;;;3.38;1.77;;;;;;;24.17;32.91;100879.25;5080653;28;20032;-73
2021/09/07 08:30:58;;;;;;;4.88;1.67;;;;;;;24.76;32.33;100885.88;5080570;28;20036;-73
2021/09/07 08:33:24;;;;;;;4.75;1.58;;;;;;;24.64;31.77;100857.91;5080648;28;20028;-73
2021/09/07 08:35:50;;;;;;;7.60;1.98;;;;;;;24.90;32.02;100868.41;5062459;28;20044;-74
2021/09/07 08:38:16;;;;;;;2.65;1.40;;;;;;;25.21;31.37;100880.97;5080664;28;20092;-74
2021/09/07 08:40:42;;;;;;;2.42;1.70;;;;;;;24.82;31.34;100874.16;5080471;28;20066;-74
2021/09/07 08:43:08;;;;;;;8.10;1.73;;;;;;;24.11;32.76;100874.72;5079452;28;20069;-73
2021/09/07 08:45:34;;;;;;;5.47;1.92;;;;;;;23.88;34.18;100872.63;5071330;28;20037;-73
2021/09/07 08:48:01;;;;;;;8.55;1.90;;;;;;;23.86;34.21;100869.31;5074257;28;20028;-73
2021/09/07 08:50:27;;;;;;;4.32;2.85;;;;;;;24.33;33.02;100867.03;5074579;28;20017;-74
2021/09/07 08:53:00;;;;;;;6.65;1.83;;;;;;;23.79;34.96;100871.25;5068294;28;20028;-73
2021/09/07 08:55:30;;;;;;;3.92;1.40;;;;;;;23.45;35.03;100864.41;5065953;28;20040;-74
2021/09/07 08:57:55;;;;;;;3.75;1.40;;;;;;;23.25;34.41;100861.84;5074630;28;20056;-73
2021/09/07 09:00:29;;;;;;;3.92;1.50;;;;;;;22.85;36.03;100855.81;5074229;28;20048;-73
2021/09/07 09:02:55;;;;;;;3.30;1.60;;;;;;;22.86;36.80;100852.91;5065725;28;20034;-73
2021/09/07 09:05:28;;;;;;;4.75;1.70;;;;;;;23.30;35.76;100858.50;5075925;28;20020;-73
2021/09/07 09:07:57;;;;;;;5.28;1.80;;;;;;;23.61;34.32;100858.50;5075321;28;20342;-73
2021/09/07 09:10:24;;;;;;;4.10;1.80;;;;;;;24.08;36.05;100865.19;5076023;28;20221;-73
2021/09/07 09:13:03;;;;;;;6.13;2.20;;;;;;;24.32;34.31;100860.78;5078489;28;20054;-73
2021/09/07 09:15:29;;;;;;;4.55;2.03;;;;;;;25.05;34.12;100859.94;5065942;28;20025;-74
2021/09/07 09:18:03;;;;;;;3.17;1.58;;;;;;;25.76;31.41;100854.47;5078690;28;20044;-71
2021/09/07 09:20:29;;;;;;;4.78;1.73;;;;;;;25.78;31.37;100852.34;5068417;28;20310;-71
2021/09/07 09:22:56;;;;;;;5.68;1.92;;;;;;;25.72;31.27;100844.31;5070164;28;20038;-73
2021/09/07 09:25:22;;;;;;;8.43;1.77;;;;;;;25.51;31.71;100844.84;5077822;28;20391;-73
2021/09/07 09:28:20;;;;;;;5.63;1.92;;;;;;;25.21;32.04;100845.72;5077274;28;20028;-73
2021/09/07 09:30:54;;;;;;;5.13;1.73;;;;;;;24.52;32.08;100844.31;5079007;28;20044;-73
2021/09/07 09:33:21;;;;;;;;;;;;;;;24.13;33.45;100840.97;5078724;28;20028;-73
2021/09/07 09:35:52;;;;;;;4.50;1.80;;;;;;;24.04;34.09;100827.97;5079205;28;19912;-73
2021/09/07 09:38:20;;;;;;;2.72;1.55;;;;;;;23.97;33.43;100824.50;5067419;28;20040;-73
2021/09/07 09:40:54;;;;;;;6.10;1.98;;;;;;;24.38;34.00;100826.56;5062690;28;20098;-73
2021/09/07 09:43:23;;;;;;;5.05;1.30;;;;;;;24.05;33.12;100807.97;5077484;28;20119;-73
2021/09/07 09:45:49;;;;;;;6.60;1.40;;;;;;;23.93;34.15;100825.97;5078043;28;20032;-73
2021/09/07 09:48:21;;;;;;;2.95;1.55;;;;;;;23.46;34.80;100822.81;5079640;28;20031;-73
2021/09/07 09:50:50;;;;;;;3.95;1.38;;;;;;;23.89;35.02;100825.59;5065564;28;20028;-73
2021/09/07 09:53:17;;;;;;;4.05;1.60;;;;;;;23.36;35.02;100814.38;5068043;28;20321;-73
2021/09/07 09:55:43;;;;;;;10.75;1.73;;;;;;;23.68;34.51;100823.28;5078487;28;20048;-73
2021/09/07 09:58:11;;;;;;;4.35;1.83;;;;;;;23.54;33.87;100820.72;5078964;28;20063;-73
2021/09/07 10:00:37;;;;;;;2.83;1.67;;;;;;;23.68;35.09;100826.81;5075533;28;20340;-73
2021/09/07 10:03:09;;;;;;;5.13;2.28;;;;;;;23.71;35.08;100818.28;5077832;28;20056;-73
2021/09/07 10:05:35;;;;;;;4.55;1.83;;;;;;;24.19;34.43;100820.31;5062457;28;20024;-73
2021/09/07 10:08:01;;;;;;;6.30;1.98;;;;;;;23.99;33.70;100809.69;5076037;28;20032;-74
2021/09/07 10:10:26;;;;;;;54.47;4.25;;;;;;;24.41;33.92;100813.41;5076239;28;20028;-74
2021/09/07 10:12:56;;;;;;;3.28;2.00;;;;;;;24.50;33.51;100805.81;5077043;28;20368;-74
2021/09/07 10:15:43;;;;;;;5.93;2.22;;;;;;;24.84;33.08;100807.03;5060433;28;20035;-74
2021/09/07 10:26:37;;;;;;;4.82;2.17;;;;;;;23.51;33.77;100804.06;5071879;28;20032;-73
2021/09/07 10:29:02;;;;;;;4.57;1.75;;;;;;;23.52;35.97;100813.84;5078716;28;20409;-73
2021/09/07 10:31:45;;;;;;;4.45;1.90;;;;;;;23.37;35.59;100794.41;5077877;28;20059;-73
2021/09/07 10:34:13;;;;;;;3.58;1.92;;;;;;;23.59;35.68;100790.31;5075943;28;20039;-73
2021/09/07 10:37:05;;;;;;;4.45;1.90;;;;;;;23.85;34.73;100786.50;5077517;28;20035;-73
2021/09/07 10:39:35;;;;;;;3.78;1.92;;;;;;;24.14;34.33;100785.81;5077473;28;20306;-74
2021/09/07 10:42:02;;;;;;;3.88;2.10;;;;;;;24.30;32.32;100791.69;5075843;28;20028;-73
2021/09/07 10:44:36;;;;;;;3.28;1.58;;;;;;;23.80;34.08;100789.06;5076864;28;20037;-73
2021/09/07 10:47:01;;;;;;;3.35;1.80;;;;;;;23.44;34.14;100774.41;5077680;28;20445;-73
2021/09/07 10:49:26;;;;;;;5.75;2.33;;;;;;;23.45;35.37;100784.16;5070726;28;20023;-73
2021/09/07 10:52:14;;;;;;;4.30;1.98;;;;;;;23.39;35.38;100781.50;5077870;28;20044;-73
2021/09/07 10:54:47;;;;;;;4.35;1.88;;;;;;;23.62;34.67;100786.31;5078599;28;20103;-73
2021/09/07 10:57:35;;;;;;;5.53;1.88;;;;;;;23.81;33.66;100779.91;5067308;28;20048;-74
2021/09/07 11:00:10;;;;;;;4.72;1.70;;;;;;;23.85;33.69;100778.41;5078885;28;20199;-73
2021/09/07 11:02:51;;;;;;;4.95;1.60;;;;;;;23.90;33.37;100770.44;5065437;28;20085;-73
2021/09/07 11:05:25;;;;;;;7.90;2.30;;;;;;;24.11;33.44;100770.03;5060415;28;20032;-73
2021/09/07 11:07:52;;;;;;;5.45;1.65;;;;;;;24.63;31.90;100766.91;5074011;28;20044;-74
2021/09/07 11:10:18;;;;;;;4.70;1.48;;;;;;;24.28;33.53;100762.16;5067565;28;20020;-74
2021/09/07 11:12:55;;;;;;;6.15;2.10;;;;;;;24.29;32.85;100766.50;5070843;28;20034;-74
2021/09/07 11:15:24;;;;;;;8.52;1.88;;;;;;;24.17;32.58;100750.19;5076744;28;20253;-73
2021/09/07 11:17:50;;;;;;;6.35;1.70;;;;;;;24.23;33.97;100756.56;5076276;28;20044;-74
2021/09/07 11:20:16;;;;;;;3.60;1.58;;;;;;;24.12;34.20;100757.31;5064160;28;20334;-73
2021/09/07 11:22:42;;;;;;;3.83;1.40;;;;;;;23.88;35.12;100743.63;5077314;28;20369;-73
2021/09/07 11:25:10;;;;;;;4.57;1.50;;;;;;;23.91;34.83;100746.91;5068717;28;20016;-74
2021/09/07 11:28:00;;;;;;;5.95;1.65;;;;;;;23.91;34.73;100752.34;5076703;28;20390;-74
2021/09/07 11:30:35;;;;;;;4.35;1.58;;;;;;;23.94;35.25;100744.63;5068881;28;20274;-73
2021/09/07 11:33:05;;;;;;;6.63;1.88;;;;;;;23.83;35.17;100746.16;5076163;28;20024;-74